Time;durP1;ratioP1;P1;durP2;ratioP2;P2;SDS_P1;SDS_P2;PMS_P1;PMS_P2;Temp;Humidity;BMP_temperature;BMP_pressure;BME280_temperature;BME280_humidity;BME280_pressure;Samples;Min_cycle;Max_cycle;Signal;HPM_P1;HPM_P2
2023/07/24 00:01:55;;;;;;;9.43;3.88;;;;;;;27.57;52.61;98951.00;5073640;28;20470;-76
2023/07/24 00:04:20;;;;;;;9.27;3.55;;;;;;;27.52;52.41;98951.66;5055264;28;20048;-77
2023/07/24 00:06:46;;;;;;;10.75;3.58;;;;;;;27.53;52.50;98956.00;5071318;28;20486;-77
2023/07/24 00:09:11;;;;;;;5.68;3.30;;;;;;;27.49;52.44;98949.44;5055181;28;20032;-77
2023/07/24 00:11:37;;;;;;;6.93;3.65;;;;;;;27.49;52.50;98948.63;5054886;28;20036;-77
2023/07/24 00:14:02;;;;;;;7.78;4.00;;;;;;;27.50;52.42;98950.25;5072197;28;20419;-77
2023/07/24 00:16:28;;;;;;;7.20;3.55;;;;;;;27.47;52.54;98939.97;5055400;28;20102;-76
2023/07/24 00:18:53;;;;;;;7.22;3.60;;;;;;;27.47;52.40;98940.81;5072215;28;20404;-77
2023/07/24 00:21:19;;;;;;;6.65;3.45;;;;;;;27.40;52.85;98934.69;5072491;28;20035;-76
2023/07/24 00:23:44;;;;;;;8.60;3.20;;;;;;;27.36;52.96;98949.59;5055888;28;20040;-76
2023/07/24 00:26:10;;;;;;;6.65;3.65;;;;;;;27.32;52.75;98937.66;5055023;28;20036;-77
2023/07/24 00:28:35;;;;;;;8.63;3.70;;;;;;;27.25;52.79;98938.50;5071773;28;20032;-77
2023/07/24 00:31:01;;;;;;;7.13;3.90;;;;;;;27.20;53.15;98933.00;5055368;28;20048;-76
2023/07/24 00:33:26;;;;;;;8.80;3.35;;;;;;;27.15;53.20;98943.56;5054683;28;20425;-77
2023/07/24 00:35:56;;;;;;;7.13;3.60;;;;;;;27.12;53.35;98941.31;5054804;28;20122;-77
2023/07/24 00:38:21;;;;;;;6.40;3.70;;;;;;;27.07;53.51;98941.97;5071599;28;20472;-77
2023/07/24 00:40:47;;;;;;;10.38;3.20;;;;;;;27.04;53.48;98941.56;5054943;28;20028;-76
2023/07/24 00:43:12;;;;;;;4.15;3.08;;;;;;;27.02;53.72;98932.94;5072528;28;20086;-76
2023/07/24 00:45:38;;;;;;;10.07;3.80;;;;;;;26.95;53.63;98943.72;5072627;28;20039;-76
2023/07/24 00:48:03;;;;;;;6.80;3.67;;;;;;;26.90;53.82;98932.84;5054982;28;20106;-76
2023/07/24 00:50:29;;;;;;;4.45;3.53;;;;;;;26.88;54.10;98938.41;5072680;28;20020;-76
2023/07/24 00:52:55;;;;;;;7.45;3.70;;;;;;;26.82;54.08;98938.44;5054719;28;20032;-77
2023/07/24 00:55:20;;;;;;;6.07;3.47;;;;;;;26.79;53.90;98942.41;5071399;28;20129;-76
2023/07/24 00:57:46;;;;;;;9.13;3.63;;;;;;;26.80;53.73;98938.66;5038237;28;20032;-75
2023/07/24 01:00:12;;;;;;;5.50;3.30;;;;;;;26.76;53.65;98934.81;5054755;28;20047;-75
2023/07/24 01:02:38;;;;;;;7.00;3.40;;;;;;;26.76;53.88;98939.31;5059546;28;20026;-75
2023/07/24 01:05:03;;;;;;;6.28;3.80;;;;;;;26.73;53.97;98942.47;5055698;28;20423;-75
2023/07/24 01:07:29;;;;;;;5.95;3.40;;;;;;;26.77;53.99;98944.47;5054668;28;20036;-76
2023/07/24 01:09:54;;;;;;;6.03;3.63;;;;;;;26.74;53.91;98942.25;5054318;28;20039;-75
2023/07/24 01:12:25;;;;;;;4.97;3.60;;;;;;;26.73;53.76;98951.31;5054326;28;20189;-77
2023/07/24 01:14:54;;;;;;;6.22;3.60;;;;;;;26.71;53.82;98948.84;5039038;28;20032;-77
2023/07/24 01:17:23;;;;;;;7.45;4.03;;;;;;;26.69;53.68;98947.41;5054817;28;20035;-76
2023/07/24 01:20:06;;;;;;;6.57;3.40;;;;;;;26.66;53.95;98939.81;5054558;28;20036;-75
2023/07/24 01:22:39;;;;;;;6.65;3.72;;;;;;;26.64;54.00;98941.84;5071655;28;20130;-75
2023/07/24 01:25:11;;;;;;;8.20;3.90;;;;;;;26.64;53.70;98940.00;5037818;28;20482;-75
2023/07/24 01:27:44;;;;;;;7.22;4.00;;;;;;;26.57;53.58;98939.22;5072298;28;20028;-75
2023/07/24 01:30:10;;;;;;;4.82;3.50;;;;;;;26.57;53.87;98935.72;5055091;28;20498;-75
2023/07/24 01:32:36;;;;;;;9.55;3.80;;;;;;;26.54;53.73;98935.13;5054417;28;20036;-75
2023/07/24 01:35:02;;;;;;;7.93;3.60;;;;;;;26.56;54.10;98936.78;5070938;28;20036;-75
2023/07/24 01:37:27;;;;;;;4.35;3.17;;;;;;;26.54;53.64;98934.31;5054629;28;20059;-76
2023/07/24 01:39:53;;;;;;;6.97;3.70;;;;;;;26.54;54.00;98937.78;5071221;28;20420;-76
2023/07/24 01:42:18;;;;;;;6.70;3.80;;;;;;;26.48;53.99;98945.88;5054446;28;20063;-75
2023/07/24 01:44:44;;;;;;;7.50;3.33;;;;;;;26.44;53.87;98934.78;5054170;28;20033;-75
2023/07/24 01:47:09;;;;;;;7.07;3.50;;;;;;;26.44;54.04;98942.81;5070243;28;20453;-75
2023/07/24 01:49:35;;;;;;;6.32;3.53;;;;;;;26.40;54.06;98938.09;5054110;28;20063;-75
2023/07/24 01:52:00;;;;;;;7.60;3.92;;;;;;;26.34;54.05;98943.25;5072207;28;20029;-75
2023/07/24 01:54:26;;;;;;;4.90;3.28;;;;;;;26.31;53.71;98933.00;5070771;28;20024;-75
2023/07/24 01:56:52;;;;;;;7.55;3.40;;;;;;;26.28;53.96;98938.78;5070817;28;20025;-75
2023/07/24 01:59:17;;;;;;;5.40;3.70;;;;;;;26.26;54.25;98940.84;5070811;28;20405;-74
2023/07/24 02:01:43;;;;;;;5.13;3.15;;;;;;;26.22;54.12;98941.47;5072092;28;20043;-75
2023/07/24 02:04:08;;;;;;;6.35;3.40;;;;;;;26.20;54.00;98939.03;5070804;28;20098;-75
2023/07/24 02:06:34;;;;;;;6.88;3.50;;;;;;;26.17;54.07;98934.09;5037753;28;20043;-75
2023/07/24 02:08:59;;;;;;;8.38;3.63;;;;;;;26.14;54.16;98934.53;5070869;28;20040;-75
2023/07/24 02:11:25;;;;;;;5.07;3.33;;;;;;;26.13;54.24;98930.22;5070504;28;20024;-75
2023/07/24 02:13:50;;;;;;;4.55;3.63;;;;;;;26.11;54.03;98925.09;5070804;28;20040;-75
2023/07/24 02:16:16;;;;;;;5.53;3.47;;;;;;;26.08;54.39;98925.50;5053723;28;20043;-75
2023/07/24 02:18:42;;;;;;;4.25;3.17;;;;;;;26.00;54.31;98910.53;5053874;28;20491;-75
2023/07/24 02:21:07;;;;;;;6.85;3.63;;;;;;;26.01;54.20;98922.03;5054395;28;20032;-75
2023/07/24 02:23:33;;;;;;;6.15;3.65;;;;;;;26.02;54.25;98917.53;5054007;28;20086;-75
2023/07/24 02:25:58;;;;;;;5.97;3.53;;;;;;;25.99;54.21;98919.56;5070356;28;20047;-75
2023/07/24 02:28:24;;;;;;;5.68;3.38;;;;;;;25.94;54.36;98927.38;5070921;28;20036;-76
2023/07/24 02:30:51;;;;;;;5.97;3.40;;;;;;;25.93;54.15;98935.63;5057944;28;20032;-76
2023/07/24 02:33:17;;;;;;;6.22;3.30;;;;;;;25.86;53.90;98922.28;5074386;28;20479;-76
2023/07/24 02:35:43;;;;;;;7.45;3.38;;;;;;;25.83;53.97;98926.19;5058125;28;20078;-76
2023/07/24 02:38:08;;;;;;;7.00;3.50;;;;;;;25.80;54.17;98921.25;5040010;28;20123;-76
2023/07/24 02:40:34;;;;;;;4.55;3.30;;;;;;;25.83;54.31;98931.53;5057927;28;20028;-76
2023/07/24 02:43:00;;;;;;;6.05;3.50;;;;;;;25.77;54.02;98921.69;5057702;28;20467;-76
2023/07/24 02:45:25;;;;;;;5.32;3.38;;;;;;;25.79;54.12;98926.81;5057720;28;20078;-76
2023/07/24 02:47:51;;;;;;;6.15;3.50;;;;;;;25.76;54.03;98922.75;5040777;28;20036;-76
2023/07/24 02:50:16;;;;;;;6.93;3.22;;;;;;;25.72;54.43;98924.19;5074105;28;20029;-76
2023/07/24 02:52:42;;;;;;;9.13;4.10;;;;;;;25.70;54.46;98922.78;5057237;28;20032;-75
2023/07/24 02:55:07;;;;;;;5.57;3.33;;;;;;;25.64;54.48;98925.22;5074275;28;20048;-74
2023/07/24 02:57:33;;;;;;;4.90;3.30;;;;;;;25.60;54.69;98917.84;5075399;28;20033;-72
2023/07/24 02:59:58;;;;;;;6.35;3.45;;;;;;;25.65;55.31;98920.72;5040680;28;20123;-72
2023/07/24 03:02:24;;;;;;;10.48;3.38;;;;;;;25.88;54.64;98925.56;5073497;28;20131;-72
2023/07/24 03:04:49;;;;;;;4.57;3.10;;;;;;;26.08;54.28;98919.34;5093251;28;20131;-70
2023/07/24 03:07:15;;;;;;;5.28;3.10;;;;;;;26.06;53.87;98927.59;5057379;28;20032;-76
2023/07/24 03:09:40;;;;;;;8.95;3.78;;;;;;;26.14;53.77;98921.16;5040809;28;20067;-76
2023/07/24 03:12:06;;;;;;;8.25;3.63;;;;;;;26.15;53.79;98922.78;5073639;28;20032;-76
2023/07/24 03:14:32;;;;;;;6.65;3.72;;;;;;;26.18;53.95;98923.19;5056912;28;20028;-77
2023/07/24 03:16:57;;;;;;;5.90;3.50;;;;;;;26.21;52.79;98926.47;5073887;28;20063;-77
2023/07/24 03:19:23;;;;;;;5.95;3.15;;;;;;;26.40;52.91;98922.06;5093064;28;20027;-71
2023/07/24 03:21:48;;;;;;;11.75;3.92;;;;;;;26.58;52.04;98932.00;5115390;28;20043;-77
2023/07/24 03:24:14;;;;;;;10.73;3.28;;;;;;;26.79;51.43;98928.19;5089946;28;20040;-74
2023/07/24 03:26:39;;;;;;;8.07;3.17;;;;;;;27.19;51.11;98917.13;5057993;28;20028;-76
2023/07/24 03:29:05;;;;;;;6.95;3.10;;;;;;;27.74;49.47;98911.00;5082851;28;20039;-78
2023/07/24 03:31:30;;;;;;;7.80;2.90;;;;;;;28.28;48.10;98917.34;5067332;28;20028;-76
2023/07/24 03:33:56;;;;;;;5.05;3.03;;;;;;;28.79;46.68;98925.09;5040658;28;20040;-77
2023/07/24 03:36:21;;;;;;;4.97;2.88;;;;;;;29.25;45.38;98918.13;5067241;28;20063;-77
2023/07/24 03:38:47;;;;;;;5.38;2.70;;;;;;;29.71;44.25;98913.72;5084270;28;20052;-77
2023/07/24 03:41:12;;;;;;;7.45;2.63;;;;;;;30.20;42.72;98926.81;5038172;28;20040;-77
2023/07/24 03:43:38;;;;;;;4.15;2.50;;;;;;;30.61;42.10;98926.75;5056254;28;20036;-77
2023/07/24 03:46:03;;;;;;;4.78;2.45;;;;;;;31.07;41.03;98927.50;5055703;28;20067;-78
2023/07/24 03:48:29;;;;;;;4.88;2.55;;;;;;;31.45;40.06;98928.59;5074239;28;20153;-77
2023/07/24 03:50:59;;;;;;;4.00;2.60;;;;;;;31.72;39.24;98926.03;5072672;28;20051;-78
2023/07/24 03:53:24;;;;;;;4.75;2.40;;;;;;;32.16;38.66;98932.47;5056333;28;20509;-77
2023/07/24 03:55:50;;;;;;;4.35;2.40;;;;;;;32.53;37.93;98929.88;5055223;28;20037;-77
2023/07/24 03:58:15;;;;;;;3.65;2.33;;;;;;;32.90;37.19;98934.50;5073322;28;20051;-77
2023/07/24 04:00:41;;;;;;;3.63;2.30;;;;;;;33.27;36.39;98927.47;5072815;28;20036;-78
2023/07/24 04:03:06;;;;;;;3.65;2.40;;;;;;;33.59;35.77;98934.69;5055693;28;20410;-77
2023/07/24 04:05:31;;;;;;;2.60;1.88;;;;;;;34.05;35.26;98940.31;5039282;28;20052;-77
2023/07/24 04:07:57;;;;;;;3.83;2.50;;;;;;;34.45;33.90;98935.28;5056003;28;20039;-77
2023/07/24 04:10:22;;;;;;;4.30;2.30;;;;;;;34.76;33.42;98934.22;5073896;28;20032;-77
2023/07/24 04:12:48;;;;;;;4.03;2.13;;;;;;;35.13;33.17;98926.88;5071984;28;20040;-76
2023/07/24 04:15:13;;;;;;;3.65;2.45;;;;;;;35.54;32.36;98925.97;5073440;28;20033;-77
2023/07/24 04:17:41;;;;;;;7.03;2.63;;;;;;;35.96;31.57;98922.81;5055426;28;20043;-78
2023/07/24 04:20:07;;;;;;;4.93;2.60;;;;;;;36.34;31.01;98920.44;5055795;28;20472;-78
2023/07/24 04:22:33;;;;;;;5.82;2.55;;;;;;;36.75;30.34;98927.47;5072368;28;20031;-74
2023/07/24 04:24:58;;;;;;;18.70;2.50;;;;;;;37.09;30.20;98922.00;5073511;28;20036;-85
2023/07/24 04:27:24;;;;;;;6.38;2.08;;;;;;;37.52;29.73;98918.56;5055635;28;20033;-86
2023/07/24 04:29:49;;;;;;;3.75;2.35;;;;;;;37.83;29.18;98915.47;5071824;28;20056;-85
2023/07/24 04:32:15;;;;;;;11.18;2.20;;;;;;;38.24;29.13;98917.66;5075704;28;20035;-86
2023/07/24 04:34:40;;;;;;;4.97;2.10;;;;;;;38.67;28.31;98924.91;5080983;28;20521;-85
2023/07/24 04:37:06;;;;;;;4.03;2.30;;;;;;;39.00;27.70;98925.69;5084136;28;20037;-85
2023/07/24 04:39:31;;;;;;;5.40;2.30;;;;;;;39.32;26.86;98929.47;5071901;28;20064;-85
2023/07/24 04:41:57;;;;;;;5.28;2.30;;;;;;;39.68;26.97;98923.31;5059814;28;20479;-87
2023/07/24 04:44:22;;;;;;;4.15;2.10;;;;;;;40.00;26.66;98927.03;5056430;28;20039;-91
2023/07/24 04:46:48;;;;;;;4.38;2.10;;;;;;;40.40;26.11;98918.97;5071985;28;20043;-89
2023/07/24 04:49:13;;;;;;;3.72;2.40;;;;;;;40.76;25.72;98922.78;5072495;28;20039;-88
2023/07/24 04:51:39;;;;;;;3.35;2.30;;;;;;;41.10;25.30;98924.91;5071809;28;20392;-89
2023/07/24 04:54:04;;;;;;;4.75;2.25;;;;;;;41.45;24.68;98916.88;5081211;28;20068;-87
2023/07/24 04:56:30;;;;;;;3.97;2.15;;;;;;;41.81;24.32;98923.25;5089005;28;20047;-88
2023/07/24 04:58:55;;;;;;;5.13;2.40;;;;;;;42.15;23.97;98927.16;5088730;28;20029;-87
2023/07/24 05:01:20;;;;;;;3.67;2.20;;;;;;;42.38;23.41;98931.34;5055333;28;20484;-88
2023/07/24 05:03:46;;;;;;;6.10;1.90;;;;;;;42.73;23.32;98933.25;5057211;28;20097;-89
2023/07/24 05:06:11;;;;;;;4.83;2.00;;;;;;;43.02;22.95;98929.81;5077539;28;20467;-83
2023/07/24 05:08:37;;;;;;;5.47;2.00;;;;;;;43.35;22.47;98940.19;5055507;28;20036;-80
2023/07/24 05:11:02;;;;;;;6.90;2.40;;;;;;;43.71;22.26;98944.34;5074985;28;20063;-82
2023/07/24 05:13:28;;;;;;;6.97;2.10;;;;;;;44.02;21.80;98943.19;5086797;28;20494;-85
2023/07/24 05:15:53;;;;;;;6.40;2.37;;;;;;;44.35;21.70;98950.72;5037847;28;20055;-81
2023/07/24 05:18:19;;;;;;;6.70;2.33;;;;;;;44.61;21.54;98953.25;5038806;28;20037;-82
2023/07/24 05:20:47;;;;;;;3.77;2.10;;;;;;;44.86;20.99;98954.13;5074340;28;20487;-81
2023/07/24 05:23:12;;;;;;;7.68;1.95;;;;;;;45.15;20.63;98953.16;5055837;28;20086;-81
2023/07/24 05:25:38;;;;;;;8.57;2.23;;;;;;;45.36;20.41;98952.25;5038172;28;20036;-83
2023/07/24 05:28:03;;;;;;;5.07;2.13;;;;;;;45.63;19.89;98952.72;5071713;28;20458;-88
2023/07/24 05:30:29;;;;;;;5.53;2.30;;;;;;;45.86;19.82;98956.63;5038447;28;20068;-82
2023/07/24 05:32:54;;;;;;;4.97;2.10;;;;;;;46.08;19.36;98956.44;5071817;28;20029;-83
2023/07/24 05:35:20;;;;;;;4.63;2.30;;;;;;;46.23;19.06;98956.53;5072886;28;20025;-84
2023/07/24 05:37:45;;;;;;;6.03;2.23;;;;;;;46.39;19.10;98962.09;5071627;28;20412;-84
2023/07/24 05:40:11;;;;;;;5.33;2.03;;;;;;;46.57;19.28;98959.84;5038553;28;20029;-83
2023/07/24 05:42:43;;;;;;;4.63;2.30;;;;;;;46.70;18.74;98959.78;5076467;28;20442;-83
2023/07/24 05:45:08;;;;;;;3.72;2.10;;;;;;;46.83;18.67;98958.56;5056227;28;20036;-85
2023/07/24 05:47:34;;;;;;;5.57;1.88;;;;;;;46.97;18.57;98957.34;5056545;28;20475;-76
2023/07/24 05:49:59;;;;;;;19.10;2.00;;;;;;;46.71;14.27;98962.19;5054438;28;20029;-76
2023/07/24 05:52:25;;;;;;;11.07;2.10;;;;;;;46.61;14.82;98972.94;5072840;28;20028;-82
2023/07/24 05:54:50;;;;;;;8.20;2.20;;;;;;;46.74;16.25;98966.22;5054976;28;20514;-84
2023/07/24 05:57:16;;;;;;;7.07;1.97;;;;;;;46.90;16.32;98964.25;5037663;28;20117;-82
2023/07/24 05:59:41;;;;;;;5.97;2.20;;;;;;;46.99;16.21;98955.84;5072020;28;20021;-81
2023/07/24 06:02:08;;;;;;;8.53;2.57;;;;;;;47.01;16.58;98958.25;5071440;28;20094;-83
2023/07/24 06:04:33;;;;;;;;;;;;;;;46.89;17.05;98956.34;5057627;28;20059;-82
2023/07/24 06:06:58;;;;;;;;;;;;;;;46.94;16.95;98959.69;5076482;28;19926;-83
2023/07/24 06:09:24;;;;;;;22.27;3.83;;;;;;;47.00;13.89;98953.88;5075527;28;19913;-80
2023/07/24 06:11:49;;;;;;;22.27;2.77;;;;;;;46.81;16.14;98955.34;5042296;28;20040;-81
2023/07/24 06:14:15;;;;;;;14.80;3.30;;;;;;;46.98;16.34;98956.22;5059288;28;20033;-83
2023/07/24 06:16:40;;;;;;;10.07;2.60;;;;;;;47.07;16.71;98951.31;5058523;28;20051;-77
2023/07/24 06:19:06;;;;;;;9.50;2.23;;;;;;;47.21;16.65;98951.66;5058982;28;20060;-82
2023/07/24 06:21:31;;;;;;;8.17;2.43;;;;;;;47.29;16.59;98958.97;5058142;28;20055;-82
2023/07/24 06:23:57;;;;;;;8.73;2.50;;;;;;;47.34;16.95;98948.81;5058580;28;20040;-83
2023/07/24 06:26:22;;;;;;;7.50;2.53;;;;;;;47.42;16.89;98939.53;5077147;28;20052;-81
2023/07/24 06:28:48;;;;;;;8.10;2.70;;;;;;;47.52;17.22;98944.50;5076755;28;20024;-77
2023/07/24 06:31:13;;;;;;;7.73;2.80;;;;;;;47.62;17.27;98948.66;5058306;28;20043;-83
2023/07/24 06:33:39;;;;;;;4.57;2.20;;;;;;;47.70;16.94;98953.25;5074555;28;20039;-80
2023/07/24 06:36:09;;;;;;;7.70;2.30;;;;;;;47.74;17.40;98945.00;5090834;28;20089;-82
2023/07/24 06:38:35;;;;;;;8.15;2.50;;;;;;;47.37;18.06;98945.34;5074716;28;20416;-82
2023/07/24 06:41:01;;;;;;;6.65;2.17;;;;;;;46.27;19.04;98937.31;5091535;28;20174;-83
2023/07/24 06:43:27;;;;;;;5.07;2.50;;;;;;;45.77;19.25;98931.13;5074984;28;20111;-82
2023/07/24 06:45:52;;;;;;;;;;;;;;;45.99;19.52;98934.50;5091940;28;20047;-83
2023/07/24 06:48:18;;;;;;;6.03;2.40;;;;;;;45.43;20.19;98941.47;5074487;28;20331;-81
2023/07/24 06:50:43;;;;;;;6.93;2.77;;;;;;;45.81;19.68;98942.25;5091443;28;20043;-83
2023/07/24 06:53:09;;;;;;;5.20;2.77;;;;;;;46.03;19.87;98940.94;5091440;28;20028;-83
2023/07/24 06:55:34;;;;;;;5.00;2.60;;;;;;;46.25;19.52;98947.13;5074850;28;20028;-83
2023/07/24 06:58:00;;;;;;;6.83;2.50;;;;;;;45.18;20.91;98948.91;5074681;28;20028;-83
2023/07/24 07:00:25;;;;;;;6.97;2.50;;;;;;;44.28;21.57;98953.22;5075560;28;20491;-83
2023/07/24 07:02:51;;;;;;;7.63;3.13;;;;;;;43.40;22.62;98936.44;5074810;28;20033;-81
2023/07/24 07:05:16;;;;;;;6.67;2.90;;;;;;;42.74;23.38;98951.34;5091282;28;20393;-83
2023/07/24 07:07:42;;;;;;;5.40;2.87;;;;;;;42.07;24.06;98940.53;5075167;28;20443;-85
2023/07/24 07:10:08;;;;;;;5.10;3.00;;;;;;;41.58;25.01;98940.56;5074535;28;20033;-82
2023/07/24 07:12:33;;;;;;;8.30;3.37;;;;;;;42.57;23.70;98931.00;5074604;28;20047;-83
2023/07/24 07:14:59;;;;;;;5.87;2.90;;;;;;;42.86;23.57;98931.44;5074917;28;20407;-83
2023/07/24 07:17:24;;;;;;;6.33;3.13;;;;;;;42.37;24.01;98931.66;5075873;28;20496;-84
2023/07/24 07:19:50;;;;;;;7.73;2.90;;;;;;;41.85;24.58;98936.00;5093992;28;20028;-83
2023/07/24 07:22:15;;;;;;;10.50;3.67;;;;;;;42.37;23.80;98943.47;5093188;28;20440;-83
2023/07/24 07:24:41;;;;;;;8.43;3.13;;;;;;;42.75;23.45;98929.06;5075156;28;20040;-83
2023/07/24 07:27:06;;;;;;;6.03;3.03;;;;;;;42.94;23.60;98925.94;5074203;28;20032;-83
2023/07/24 07:29:32;;;;;;;7.97;3.10;;;;;;;43.05;23.25;98931.06;5073815;28;20598;-83
2023/07/24 07:31:57;;;;;;;6.63;3.67;;;;;;;42.66;23.82;98923.56;5074800;28;20039;-83
2023/07/24 07:34:23;;;;;;;7.93;3.30;;;;;;;43.05;23.29;98917.34;5073796;28;20120;-83
2023/07/24 07:36:48;;;;;;;10.07;3.50;;;;;;;43.19;23.11;98913.25;5073873;28;20403;-82
2023/07/24 07:39:14;;;;;;;7.77;3.10;;;;;;;43.37;22.82;98907.69;5090341;28;20037;-83
2023/07/24 07:41:39;;;;;;;9.60;2.90;;;;;;;43.52;23.00;98909.88;5090225;28;20040;-81
2023/07/24 07:44:05;;;;;;;8.67;3.63;;;;;;;43.65;23.15;98912.69;5072847;28;20507;-82
2023/07/24 07:46:31;;;;;;;8.05;3.20;;;;;;;43.80;22.84;98906.66;5090264;28;20077;-82
2023/07/24 07:48:56;;;;;;;6.43;3.20;;;;;;;43.94;22.55;98909.13;5073223;28;20072;-84
2023/07/24 07:51:24;;;;;;;8.03;3.33;;;;;;;43.99;22.60;98917.16;5056128;28;20041;-84
2023/07/24 07:53:49;;;;;;;6.22;3.28;;;;;;;44.05;22.47;98915.81;5089814;28;20107;-83
2023/07/24 07:56:15;;;;;;;6.73;3.20;;;;;;;44.10;22.58;98912.06;5089925;28;20033;-82
2023/07/24 07:58:40;;;;;;;6.93;3.00;;;;;;;44.14;22.66;98906.69;5056596;28;20040;-82
2023/07/24 08:01:06;;;;;;;6.53;2.80;;;;;;;44.16;22.98;98905.22;5073013;28;20040;-83
2023/07/24 08:03:31;;;;;;;6.70;3.30;;;;;;;44.20;22.70;98910.88;5089946;28;20493;-83
2023/07/24 08:05:58;;;;;;;9.20;3.20;;;;;;;44.22;22.58;98909.41;5056152;28;20056;-83
2023/07/24 08:08:23;;;;;;;9.05;3.17;;;;;;;44.21;22.74;98910.53;5073231;28;20035;-83
2023/07/24 08:10:49;;;;;;;8.00;3.00;;;;;;;44.26;22.75;98915.03;5090037;28;20024;-82
2023/07/24 08:13:14;;;;;;;8.43;3.30;;;;;;;44.22;22.81;98909.41;5056411;28;20064;-83
2023/07/24 08:15:40;;;;;;;5.90;3.17;;;;;;;44.20;22.42;98894.38;5090182;28;20035;-85
2023/07/24 08:18:05;;;;;;;12.40;3.73;;;;;;;44.18;22.81;98897.44;5073096;28;20044;-82
2023/07/24 08:20:31;;;;;;;8.93;3.73;;;;;;;44.13;22.55;98899.59;5090049;28;20551;-83
2023/07/24 08:22:57;;;;;;;11.57;3.78;;;;;;;44.06;22.74;98902.88;5090788;28;20211;-86
2023/07/24 08:25:22;;;;;;;6.80;3.37;;;;;;;43.99;22.76;98897.91;5089533;28;20036;-83
2023/07/24 08:27:48;;;;;;;10.80;3.90;;;;;;;43.91;22.80;98902.34;5088886;28;20419;-84
2023/07/24 08:30:13;;;;;;;7.77;3.80;;;;;;;43.81;22.68;98893.72;5073824;28;20487;-84
2023/07/24 08:32:39;;;;;;;6.07;3.27;;;;;;;43.72;23.01;98899.25;5072988;28;20033;-84
2023/07/24 08:35:05;;;;;;;6.33;3.50;;;;;;;43.55;23.09;98894.66;5089961;28;20039;-84
2023/07/24 08:37:31;;;;;;;7.05;3.20;;;;;;;43.47;23.13;98881.78;5055500;28;20037;-83
2023/07/24 08:39:56;;;;;;;13.23;4.20;;;;;;;43.39;23.17;98886.19;5089552;28;20035;-83
2023/07/24 08:42:22;;;;;;;7.27;3.63;;;;;;;43.32;23.21;98878.47;5089294;28;20082;-84
2023/07/24 08:44:47;;;;;;;9.00;3.60;;;;;;;43.17;23.46;98870.78;5089410;28;20037;-85
2023/07/24 08:47:13;;;;;;;9.67;3.57;;;;;;;43.01;23.65;98868.59;5089482;28;20027;-85
2023/07/24 08:49:40;;;;;;;5.23;2.90;;;;;;;42.93;23.66;98865.88;5072389;28;20021;-83
2023/07/24 08:52:06;;;;;;;6.10;3.15;;;;;;;42.82;23.80;98865.41;5072302;28;20020;-83
2023/07/24 08:54:31;;;;;;;10.03;3.30;;;;;;;42.81;23.87;98864.63;5089126;28;20060;-84
2023/07/24 08:56:57;;;;;;;5.80;2.80;;;;;;;42.73;23.77;98862.72;5089828;28;20036;-84
2023/07/24 08:59:22;;;;;;;6.60;3.30;;;;;;;42.66;23.55;98862.41;5072081;28;20454;-84
2023/07/24 09:01:48;;;;;;;9.67;3.37;;;;;;;42.58;23.79;98868.72;5088722;28;20399;-83
2023/07/24 09:04:13;;;;;;;5.20;3.27;;;;;;;42.49;23.99;98865.97;5088478;28;20098;-85
2023/07/24 09:06:39;;;;;;;5.67;3.27;;;;;;;42.46;23.79;98870.19;5089373;28;20040;-83
2023/07/24 09:09:14;;;;;;;6.63;3.20;;;;;;;42.25;24.05;98864.56;5072046;28;20033;-84
2023/07/24 09:11:50;;;;;;;9.27;3.45;;;;;;;42.20;23.94;98856.50;5093410;28;20048;-84
2023/07/24 09:14:26;;;;;;;6.63;3.17;;;;;;;42.11;23.90;98851.03;5091877;28;20025;-85
2023/07/24 09:17:11;;;;;;;4.70;3.33;;;;;;;42.04;24.38;98858.91;5077660;28;20048;-85
2023/07/24 09:19:36;;;;;;;6.28;3.40;;;;;;;41.93;24.20;98852.16;5089193;28;20039;-84
2023/07/24 09:22:12;;;;;;;6.67;3.10;;;;;;;41.90;23.99;98858.28;5071587;28;20045;-83
2023/07/24 09:24:38;;;;;;;5.78;3.08;;;;;;;41.81;24.46;98841.81;5088699;28;20025;-83
2023/07/24 09:27:05;;;;;;;4.33;2.83;;;;;;;41.79;23.89;98849.56;5088870;28;20036;-86
2023/07/24 09:29:31;;;;;;;4.40;2.83;;;;;;;41.61;24.13;98839.69;5071952;28;20411;-84
2023/07/24 09:31:57;;;;;;;4.78;3.00;;;;;;;41.50;24.49;98841.97;5088387;28;20029;-82
2023/07/24 09:34:22;;;;;;;5.00;2.97;;;;;;;41.36;24.24;98845.63;5088337;28;20040;-85
2023/07/24 09:36:48;;;;;;;6.30;2.92;;;;;;;41.30;24.35;98835.94;5071636;28;20032;-84
2023/07/24 09:39:13;;;;;;;9.60;3.10;;;;;;;41.27;24.03;98830.28;5070773;28;20093;-84
2023/07/24 09:41:39;;;;;;;4.83;3.00;;;;;;;41.22;24.43;98834.75;5088251;28;20399;-85
2023/07/24 09:44:05;;;;;;;4.22;2.97;;;;;;;41.16;24.19;98829.75;5088896;28;20039;-84
2023/07/24 09:46:32;;;;;;;10.00;3.00;;;;;;;41.06;23.91;98822.66;5088574;28;20056;-86
2023/07/24 09:48:57;;;;;;;6.05;3.00;;;;;;;40.94;24.35;98830.66;5087897;28;20059;-86
2023/07/24 09:51:22;;;;;;;4.90;2.75;;;;;;;40.83;23.59;98825.44;5054494;28;20071;-84
2023/07/24 09:53:51;;;;;;;7.95;2.85;;;;;;;40.80;23.81;98825.25;5070831;28;20446;-84
2023/07/24 09:56:17;;;;;;;4.65;2.80;;;;;;;40.73;23.39;98817.50;5072686;28;20025;-83
2023/07/24 09:58:43;;;;;;;3.92;2.60;;;;;;;40.59;23.40;98806.66;5088081;28;20033;-85
2023/07/24 10:01:09;;;;;;;4.15;2.60;;;;;;;40.57;23.53;98808.91;5054434;28;20418;-84
2023/07/24 10:03:39;;;;;;;6.97;2.70;;;;;;;40.46;23.42;98804.84;5071061;28;20033;-84
2023/07/24 10:06:05;;;;;;;4.60;2.92;;;;;;;40.39;23.75;98797.06;5088132;28;20172;-85
2023/07/24 10:08:30;;;;;;;6.18;2.58;;;;;;;40.36;23.89;98789.47;5071908;28;20116;-83
2023/07/24 10:10:58;;;;;;;3.97;2.90;;;;;;;40.35;24.02;98798.78;5071368;28;20029;-85
2023/07/24 10:13:25;;;;;;;4.78;2.85;;;;;;;40.27;24.23;98780.41;5054468;28;20071;-83
2023/07/24 10:15:50;;;;;;;4.32;2.90;;;;;;;40.20;23.85;98777.31;5071179;28;20079;-85
2023/07/24 10:18:19;;;;;;;6.60;2.63;;;;;;;40.12;24.00;98778.88;5071325;28;20040;-85
2023/07/24 10:20:45;;;;;;;3.88;2.83;;;;;;;40.02;24.02;98777.19;5087435;28;20017;-84
2023/07/24 10:23:11;;;;;;;3.60;2.50;;;;;;;39.92;23.98;98764.56;5071294;28;20415;-86
2023/07/24 10:25:43;;;;;;;3.63;2.70;;;;;;;39.79;24.30;98763.53;5053996;28;20115;-85
2023/07/24 10:28:16;;;;;;;6.05;2.90;;;;;;;39.67;24.48;98759.72;5070500;28;20032;-84
2023/07/24 10:30:41;;;;;;;4.32;2.78;;;;;;;39.51;24.62;98757.31;5071114;28;20039;-85
2023/07/24 10:33:18;;;;;;;4.22;2.88;;;;;;;39.45;24.88;98759.34;5070552;28;20068;-85
2023/07/24 10:35:45;;;;;;;3.97;2.77;;;;;;;39.32;24.83;98757.47;5054158;28;20502;-84
2023/07/24 10:38:11;;;;;;;4.65;2.95;;;;;;;39.18;24.97;98749.31;5087859;28;20403;-83
2023/07/24 10:40:37;;;;;;;4.47;2.90;;;;;;;39.16;24.70;98758.94;5087713;28;20020;-85
2023/07/24 10:43:07;;;;;;;4.13;3.10;;;;;;;39.12;24.77;98749.72;5088032;28;20024;-85
2023/07/24 10:45:52;;;;;;;5.05;3.10;;;;;;;39.04;25.07;98753.97;5070840;28;20064;-84
2023/07/24 10:48:19;;;;;;;4.88;3.08;;;;;;;39.01;24.97;98749.09;5087340;28;20392;-83
2023/07/24 10:50:45;;;;;;;4.77;3.00;;;;;;;38.98;24.96;98750.53;5059574;28;20056;-84
2023/07/24 10:53:12;;;;;;;5.45;3.03;;;;;;;38.94;24.99;98741.34;5091247;28;20028;-84
2023/07/24 10:55:38;;;;;;;7.20;3.15;;;;;;;38.86;24.29;98725.69;5091386;28;20028;-85
2023/07/24 10:58:03;;;;;;;4.40;3.03;;;;;;;38.81;24.68;98733.97;5074494;28;20120;-84
2023/07/24 11:00:29;;;;;;;5.07;3.22;;;;;;;38.75;24.47;98727.03;5057992;28;20033;-85
2023/07/24 11:02:54;;;;;;;3.75;3.05;;;;;;;38.69;24.77;98715.41;5091946;28;20037;-83
2023/07/24 11:05:23;;;;;;;5.03;3.40;;;;;;;38.61;24.39;98721.53;5092002;28;20150;-84
2023/07/24 11:07:49;;;;;;;6.47;3.33;;;;;;;38.47;24.31;98718.78;5074350;28;20033;-84
2023/07/24 11:10:17;;;;;;;9.95;3.58;;;;;;;38.31;24.04;98707.38;5074028;28;20035;-85
2023/07/24 11:12:43;;;;;;;5.10;3.17;;;;;;;38.18;24.21;98706.25;5074822;28;20066;-84
2023/07/24 11:15:08;;;;;;;7.85;3.40;;;;;;;38.06;24.42;98703.97;5091043;28;20170;-83
2023/07/24 11:17:40;;;;;;;9.25;3.70;;;;;;;37.90;24.39;98710.81;5091004;28;20028;-89
2023/07/24 11:20:12;;;;;;;6.38;3.50;;;;;;;37.78;24.39;98711.25;5090887;28;20047;-84
2023/07/24 11:22:41;;;;;;;6.25;3.20;;;;;;;37.61;24.26;98692.72;5075684;28;20029;-88
2023/07/24 11:25:08;;;;;;;5.35;3.17;;;;;;;37.47;24.32;98698.09;5074656;28;20121;-86
2023/07/24 11:27:38;;;;;;;6.00;3.70;;;;;;;37.33;24.59;98695.31;5091343;28;20109;-89
2023/07/24 11:30:04;;;;;;;4.68;3.17;;;;;;;37.20;24.51;98683.22;5075316;28;20036;-85